Time;durP1;ratioP1;P1;durP2;ratioP2;P2;SDS_P1;SDS_P2;PMS_P1;PMS_P2;Temp;Humidity;BMP_temperature;BMP_pressure;BME280_temperature;BME280_humidity;BME280_pressure;Samples;Min_cycle;Max_cycle;Signal;HPM_P1;HPM_P2
2023/10/01 00:01:17;;;;;;;4.63;2.78;;;;;;;21.92;52.68;94277.66;6015362;23;20019;-92
2023/10/01 00:03:43;;;;;;;5.38;3.10;;;;;;;21.92;52.78;94277.66;6015171;23;20512;-93
2023/10/01 00:06:08;;;;;;;4.85;2.80;;;;;;;21.88;52.81;94270.41;6015733;23;20027;-93
2023/10/01 00:08:35;;;;;;;5.05;2.78;;;;;;;21.92;52.53;94278.41;6016655;23;20461;-94
2023/10/01 00:11:02;;;;;;;4.88;3.05;;;;;;;21.92;52.55;94277.66;6016022;23;20041;-93
2023/10/01 00:13:29;;;;;;;6.07;3.53;;;;;;;21.88;52.60;94275.16;6015484;23;20074;-93
2023/10/01 00:15:55;;;;;;;4.13;2.75;;;;;;;21.88;52.70;94272.41;6016779;23;20052;-93
2023/10/01 00:18:24;;;;;;;5.85;3.17;;;;;;;21.88;52.72;94266.91;6015268;23;20049;-93
2023/10/01 00:20:50;;;;;;;4.97;3.13;;;;;;;21.87;52.66;94271.66;6058824;23;20104;-92
2023/10/01 00:23:16;;;;;;;4.68;3.20;;;;;;;21.88;52.39;94277.91;6042515;23;20026;-92
2023/10/01 00:25:43;;;;;;;7.25;2.90;;;;;;;21.88;52.70;94267.66;6048525;23;20467;-92
2023/10/01 00:28:09;;;;;;;4.85;2.83;;;;;;;21.88;52.75;94275.16;6075139;23;20025;-94
2023/10/01 00:30:36;;;;;;;5.75;3.13;;;;;;;21.88;52.37;94272.41;6044581;23;20027;-92
2023/10/01 00:33:07;;;;;;;5.60;3.40;;;;;;;21.88;52.52;94266.91;6069165;23;20029;-92
2023/10/01 00:35:33;;;;;;;4.35;2.63;;;;;;;21.91;52.42;94271.41;6068178;23;20156;-93
2023/10/01 00:37:58;;;;;;;5.18;3.30;;;;;;;21.90;52.62;94262.38;6070241;23;20022;-93
2023/10/01 00:40:25;;;;;;;5.10;2.58;;;;;;;21.88;52.58;94266.91;6034067;23;20038;-94
2023/10/01 00:42:50;;;;;;;6.70;3.42;;;;;;;21.89;52.30;94260.16;6070527;23;20389;-92
2023/10/01 00:45:16;;;;;;;5.65;3.17;;;;;;;21.86;52.82;94266.72;6045318;23;20018;-94
2023/10/01 00:47:43;;;;;;;4.82;2.38;;;;;;;21.89;52.61;94266.41;6045689;23;20017;-94
2023/10/01 00:50:13;;;;;;;6.13;2.67;;;;;;;21.89;52.45;94262.91;6069376;23;20508;-92
2023/10/01 00:52:39;;;;;;;5.25;2.47;;;;;;;21.90;52.43;94276.16;6046907;23;20409;-93
2023/10/01 00:55:05;;;;;;;5.10;2.65;;;;;;;21.87;52.37;94263.41;6070323;23;20022;-93
2023/10/01 00:57:31;;;;;;;4.25;2.70;;;;;;;21.90;52.46;94270.66;6044989;23;20029;-93
2023/10/01 00:59:56;;;;;;;4.47;2.83;;;;;;;21.91;52.51;94271.41;6046544;23;20048;-93
2023/10/01 01:02:22;;;;;;;6.43;3.40;;;;;;;21.86;52.57;94267.44;6044258;23;20108;-93
2023/10/01 01:05:05;;;;;;;4.28;2.53;;;;;;;21.87;52.50;94273.69;6063262;23;20468;-93
2023/10/01 01:07:32;;;;;;;4.78;2.70;;;;;;;21.87;52.37;94260.66;6082788;23;20119;-94
2023/10/01 01:10:00;;;;;;;4.75;2.95;;;;;;;21.88;52.62;94261.41;6077384;23;20017;-94
2023/10/01 01:12:26;;;;;;;4.03;2.53;;;;;;;21.87;52.50;94266.16;6076082;23;20025;-94
2023/10/01 01:14:54;;;;;;;6.75;3.47;;;;;;;21.88;52.38;94266.91;6077554;23;20099;-94
2023/10/01 01:17:21;;;;;;;3.03;2.33;;;;;;;21.88;52.44;94264.16;6074269;23;20036;-91
2023/10/01 01:19:52;;;;;;;6.35;3.40;;;;;;;21.86;52.42;94263.94;6076679;23;20018;-93
2023/10/01 01:22:28;;;;;;;5.30;2.80;;;;;;;21.84;52.60;94253.44;6075764;23;20037;-92
2023/10/01 01:24:57;;;;;;;4.10;3.00;;;;;;;21.85;52.45;94265.22;6081064;23;20010;-93
2023/10/01 01:27:23;;;;;;;6.55;2.55;;;;;;;21.83;52.45;94256.72;6075766;23;20466;-94
2023/10/01 01:29:50;;;;;;;4.13;2.88;;;;;;;21.84;52.42;94260.97;6076262;23;20404;-93
2023/10/01 01:32:16;;;;;;;4.35;2.60;;;;;;;21.84;52.71;94256.19;6075396;23;20497;-93
2023/10/01 01:34:44;;;;;;;4.25;2.10;;;;;;;21.86;52.03;94253.69;6076584;23;20024;-94
2023/10/01 01:37:30;;;;;;;4.78;2.75;;;;;;;21.83;52.30;94259.47;6099500;23;20125;-92
2023/10/01 01:39:57;;;;;;;4.22;2.30;;;;;;;21.86;52.06;94256.44;6083312;23;20017;-93
2023/10/01 01:42:24;;;;;;;6.68;2.60;;;;;;;21.84;52.38;94253.44;6088339;23;20024;-95
2023/10/01 01:47:38;;;;;;;5.38;3.00;;;;;;;21.83;52.21;94268.47;6108015;23;20029;-93
2023/10/01 01:50:21;;;;;;;4.78;2.58;;;;;;;21.83;52.17;94262.97;6066308;23;20021;-93
2023/10/01 01:52:52;;;;;;;3.75;2.47;;;;;;;21.82;52.54;94263.47;6105381;23;20037;-93
2023/10/01 01:55:26;;;;;;;4.05;2.33;;;;;;;21.81;52.80;94267.50;6089254;23;20017;-93
2023/10/01 01:58:10;;;;;;;3.85;2.33;;;;;;;21.82;52.40;94258.72;6079227;23;20480;-92
2023/10/01 02:00:46;;;;;;;4.43;2.67;;;;;;;21.80;52.76;94255.72;6081465;23;20029;-93
2023/10/01 02:03:17;;;;;;;3.42;2.30;;;;;;;21.82;52.29;94257.97;6077540;23;20037;-91
2023/10/01 02:05:48;;;;;;;5.35;2.80;;;;;;;21.82;52.23;94252.47;6077941;23;20444;-94
2023/10/01 02:08:35;;;;;;;6.57;2.92;;;;;;;21.82;52.47;94249.72;6076272;23;20025;-91
2023/10/01 02:11:08;;;;;;;5.20;2.78;;;;;;;21.80;52.37;94247.47;6084002;23;20076;-94
2023/10/01 02:13:40;;;;;;;4.55;2.40;;;;;;;21.82;52.23;94257.97;6101432;23;20014;-93
2023/10/01 02:19:11;;;;;;;4.28;2.13;;;;;;;21.80;52.35;94255.72;6107392;23;20017;-93
2023/10/01 02:21:49;;;;;;;3.63;2.20;;;;;;;21.81;52.16;94253.72;6082593;23;20032;-92
2023/10/01 02:24:21;;;;;;;3.35;1.98;;;;;;;21.79;52.49;94251.50;6077655;23;20093;-94
2023/10/01 02:26:47;;;;;;;3.78;2.72;;;;;;;21.79;52.44;94245.97;6077916;23;20042;-93
2023/10/01 02:29:13;;;;;;;2.85;2.13;;;;;;;21.81;52.29;94248.97;6075337;23;20040;-93
2023/10/01 02:31:47;;;;;;;5.28;2.47;;;;;;;21.80;52.35;94238.47;6074963;23;20129;-93
2023/10/01 02:34:14;;;;;;;5.57;2.53;;;;;;;21.81;52.18;94240.72;6077862;23;20045;-92
2023/10/01 02:36:44;;;;;;;4.45;2.55;;;;;;;21.83;52.31;94242.97;6077265;23;20052;-92
2023/10/01 02:39:27;;;;;;;3.67;2.30;;;;;;;21.81;52.42;94237.22;6075219;23;20348;-92
2023/10/01 02:44:40;;;;;;;2.85;1.85;;;;;;;21.81;52.15;94237.22;6105492;23;20021;-93
2023/10/01 02:47:18;;;;;;;3.28;2.25;;;;;;;21.79;52.24;94237.72;6075857;23;20134;-93
2023/10/01 02:49:52;;;;;;;4.35;2.55;;;;;;;21.78;52.15;94241.00;6080123;23;20021;-93
2023/10/01 02:52:25;;;;;;;4.28;2.35;;;;;;;21.78;52.39;94232.72;6076214;23;20013;-94
2023/10/01 02:54:54;;;;;;;4.15;2.30;;;;;;;21.77;52.32;94226.47;6090052;23;20403;-91
2023/10/01 02:57:24;;;;;;;3.78;2.22;;;;;;;21.77;52.27;94231.97;6076337;23;20430;-94
2023/10/01 03:02:50;;;;;;;3.95;2.25;;;;;;;21.78;52.28;94229.97;6105477;23;20016;-92
2023/10/01 03:05:33;;;;;;;4.05;2.70;;;;;;;21.76;52.33;94230.50;6078717;23;20445;-94
2023/10/01 03:08:03;;;;;;;5.07;2.80;;;;;;;21.78;52.18;94224.47;6082610;23;20515;-93
2023/10/01 03:10:31;;;;;;;4.57;2.13;;;;;;;21.77;52.15;94226.47;6100805;23;20068;-93
2023/10/01 03:13:03;;;;;;;3.33;2.45;;;;;;;21.76;52.34;94238.00;6076919;23;20017;-94
2023/10/01 03:15:35;;;;;;;4.45;2.17;;;;;;;21.79;52.20;94248.00;6075795;23;20021;-94
2023/10/01 03:18:34;;;;;;;2.88;1.98;;;;;;;21.77;52.24;94234.72;6077407;23;20029;-93
2023/10/01 03:26:00;;;;;;;4.13;2.40;;;;;;;21.75;52.48;94228.25;6123645;23;20056;-92
2023/10/01 03:28:35;;;;;;;4.28;2.38;;;;;;;21.75;52.32;94231.00;6080467;23;20379;-91
2023/10/01 03:31:08;;;;;;;3.97;2.40;;;;;;;21.76;52.27;94230.50;6076648;23;20018;-93
2023/10/01 03:33:37;;;;;;;3.35;2.08;;;;;;;21.74;52.34;94222.00;6076655;23;20089;-93
2023/10/01 03:36:05;;;;;;;3.45;2.13;;;;;;;21.74;52.54;94227.50;6076301;23;20020;-92
2023/10/01 03:38:32;;;;;;;3.55;2.15;;;;;;;21.76;52.25;94233.25;6074853;23;20107;-92
2023/10/01 03:41:00;;;;;;;3.95;2.15;;;;;;;21.77;52.03;94236.75;6075894;23;20076;-94
2023/10/01 03:43:31;;;;;;;4.63;2.47;;;;;;;21.76;52.41;94236.00;6075014;23;20033;-92
2023/10/01 03:46:06;;;;;;;3.50;2.30;;;;;;;21.74;52.21;94227.50;6076311;23;20021;-93
2023/10/01 03:48:57;;;;;;;4.18;2.60;;;;;;;21.77;51.86;94234.00;6027420;23;20023;-92
2023/10/01 03:51:28;;;;;;;2.45;1.75;;;;;;;21.77;52.02;94234.00;6066938;23;20038;-93
2023/10/01 03:53:59;;;;;;;3.55;2.10;;;;;;;21.78;51.89;94235.47;6065799;23;20027;-94
2023/10/01 03:56:30;;;;;;;3.78;2.30;;;;;;;21.75;51.95;94242.00;6029129;23;20103;-92
2023/10/01 03:58:56;;;;;;;3.67;2.10;;;;;;;21.75;52.27;94242.00;5984699;23;20099;-94
2023/10/01 04:01:33;;;;;;;2.28;1.65;;;;;;;21.77;51.70;94247.75;5981523;23;20412;-91
2023/10/01 04:04:00;;;;;;;4.18;2.33;;;;;;;21.77;51.90;94245.75;6008629;23;20020;-94
2023/10/01 04:06:27;;;;;;;3.30;1.85;;;;;;;21.74;52.28;94249.53;6005457;23;20023;-93
2023/10/01 04:08:55;;;;;;;5.70;2.30;;;;;;;21.77;51.81;94243.00;5983276;23;20019;-93
2023/10/01 04:11:49;;;;;;;2.80;2.05;;;;;;;21.74;52.20;94235.75;5983423;23;20028;-92
2023/10/01 04:14:17;;;;;;;2.65;1.85;;;;;;;21.76;51.88;94246.25;6011842;23;20023;-94
2023/10/01 04:16:46;;;;;;;3.90;2.40;;;;;;;21.76;52.07;94249.00;6009187;23;20031;-92
2023/10/01 04:19:18;;;;;;;4.40;2.65;;;;;;;21.76;51.94;94240.75;6022274;23;20019;-92
2023/10/01 04:21:50;;;;;;;4.38;2.35;;;;;;;21.75;52.16;94250.25;6042942;23;20025;-92
2023/10/01 04:24:16;;;;;;;3.13;2.08;;;;;;;21.73;52.24;94244.53;6043211;23;20022;-94
2023/10/01 04:26:42;;;;;;;3.78;2.10;;;;;;;21.76;51.81;94254.50;6055620;23;20409;-94
2023/10/01 04:29:08;;;;;;;3.05;2.10;;;;;;;21.76;51.88;94252.50;6076515;23;20019;-93
2023/10/01 04:31:47;;;;;;;4.07;1.92;;;;;;;21.75;51.91;94255.78;6077415;23;20040;-92
2023/10/01 04:34:14;;;;;;;3.95;2.08;;;;;;;21.74;51.89;94252.28;6081530;23;20016;-92
2023/10/01 04:36:44;;;;;;;3.20;2.08;;;;;;;21.73;51.92;94250.03;6076857;23;20014;-92
2023/10/01 04:39:09;;;;;;;2.83;2.03;;;;;;;21.74;52.10;94255.03;6075903;23;20017;-93
2023/10/01 04:41:35;;;;;;;4.43;2.28;;;;;;;21.74;52.03;94251.53;6076788;23;20014;-92
2023/10/01 04:44:07;;;;;;;2.67;1.92;;;;;;;21.74;51.90;94259.78;6077488;23;20022;-93
2023/10/01 04:46:40;;;;;;;3.15;2.08;;;;;;;21.75;52.01;94255.78;6051878;23;20074;-93
2023/10/01 04:49:26;;;;;;;2.60;2.10;;;;;;;21.73;52.22;94267.28;6042920;23;20073;-93
2023/10/01 04:51:54;;;;;;;3.83;2.10;;;;;;;21.74;51.89;94257.03;6050164;23;20022;-93
2023/10/01 04:54:21;;;;;;;2.95;1.85;;;;;;;21.76;51.83;94263.50;6016309;23;20030;-92
2023/10/01 04:56:48;;;;;;;3.95;2.05;;;;;;;21.77;51.58;94256.00;6030508;23;20023;-92
2023/10/01 04:59:14;;;;;;;2.60;1.70;;;;;;;21.75;51.85;94253.03;6041027;23;20338;-94
2023/10/01 05:01:42;;;;;;;3.15;1.77;;;;;;;21.72;51.79;94263.03;6041653;23;20022;-94
2023/10/01 05:04:14;;;;;;;3.53;2.40;;;;;;;21.72;51.84;94268.53;6040722;23;20513;-94
2023/10/01 05:06:43;;;;;;;2.55;1.70;;;;;;;21.72;51.93;94267.81;6019293;23;20106;-91
2023/10/01 05:09:16;;;;;;;4.03;2.00;;;;;;;21.73;51.96;94258.28;6040421;23;20085;-93
2023/10/01 05:11:42;;;;;;;2.55;1.70;;;;;;;21.75;51.63;94262.03;6019711;23;20070;-92
2023/10/01 05:14:07;;;;;;;3.38;2.00;;;;;;;21.76;51.95;94252.50;6040735;23;20029;-93
2023/10/01 05:16:38;;;;;;;4.95;2.20;;;;;;;21.72;51.59;94267.81;6070459;23;20026;-94
2023/10/01 05:19:13;;;;;;;2.67;1.83;;;;;;;21.72;51.93;94257.53;6039601;23;20018;-92
2023/10/01 05:21:46;;;;;;;3.85;2.30;;;;;;;21.70;52.17;94262.81;6020167;23;20069;-93
2023/10/01 05:24:15;;;;;;;2.25;1.70;;;;;;;21.71;51.96;94264.31;6017878;23;20335;-93
2023/10/01 05:26:44;;;;;;;2.80;2.00;;;;;;;21.71;52.26;94275.31;6018628;23;20058;-93
2023/10/01 05:29:20;;;;;;;3.97;1.92;;;;;;;21.69;51.93;94275.06;6016647;23;20014;-94
2023/10/01 05:31:47;;;;;;;3.28;1.98;;;;;;;21.70;51.87;94273.06;6021084;23;20024;-93
2023/10/01 05:34:13;;;;;;;2.80;2.00;;;;;;;21.72;51.92;94273.31;6016969;23;20095;-94
2023/10/01 05:36:40;;;;;;;2.30;1.73;;;;;;;21.72;52.06;94276.81;6017450;23;20440;-93
2023/10/01 05:39:11;;;;;;;2.47;1.67;;;;;;;21.72;51.84;94289.81;6016220;23;20528;-93
2023/10/01 05:41:37;;;;;;;3.53;2.08;;;;;;;21.75;51.85;94286.78;6018934;23;20567;-92
2023/10/01 05:44:04;;;;;;;3.03;1.83;;;;;;;21.74;51.88;94277.03;6016569;23;20026;-94
2023/10/01 05:46:30;;;;;;;2.97;2.08;;;;;;;21.76;51.78;94287.53;6017642;23;20026;-92
2023/10/01 05:48:59;;;;;;;2.47;1.65;;;;;;;21.75;51.76;94292.28;6020534;23;20061;-93
2023/10/01 05:51:30;;;;;;;3.75;2.38;;;;;;;21.77;51.77;94294.53;6075672;23;20022;-93
2023/10/01 05:53:56;;;;;;;3.22;1.80;;;;;;;21.78;51.88;94296.78;6078036;23;20028;-91
2023/10/01 05:56:22;;;;;;;4.50;2.17;;;;;;;21.78;51.87;94294.03;6075183;23;20056;-95
2023/10/01 05:58:48;;;;;;;2.97;1.80;;;;;;;21.78;51.80;94291.28;6076293;23;20349;-93
2023/10/01 06:01:14;;;;;;;2.55;1.67;;;;;;;21.80;51.87;94299.03;6099538;23;20030;-91
2023/10/01 06:03:46;;;;;;;3.20;2.15;;;;;;;21.80;51.62;94294.25;6076834;23;20014;-92
2023/10/01 06:06:24;;;;;;;3.00;2.05;;;;;;;21.81;51.72;94293.00;6100590;23;20063;-93
2023/10/01 06:08:50;;;;;;;2.28;1.58;;;;;;;21.82;51.67;94289.00;6081533;23;20022;-93
2023/10/01 06:11:16;;;;;;;2.63;1.88;;;;;;;21.82;51.63;94289.00;6075439;23;20041;-93
2023/10/01 06:13:53;;;;;;;3.67;1.95;;;;;;;21.83;51.65;94284.25;6075912;23;20022;-92
2023/10/01 06:16:22;;;;;;;3.55;1.88;;;;;;;21.85;51.47;94289.97;6101104;23;20013;-93
2023/10/01 06:18:50;;;;;;;2.20;1.53;;;;;;;21.83;51.65;94295.25;6077251;23;20018;-93
2023/10/01 06:21:20;;;;;;;4.65;2.13;;;;;;;21.83;51.95;94296.00;6075267;23;20018;-92
2023/10/01 06:23:51;;;;;;;2.40;1.50;;;;;;;21.83;51.71;94303.50;6077465;23;20013;-93
2023/10/01 06:26:22;;;;;;;3.13;2.08;;;;;;;21.84;51.47;94305.75;6077274;23;20374;-94
2023/10/01 06:28:48;;;;;;;;;;;;;;;21.87;51.67;94301.19;6100604;23;20023;-92
2023/10/01 06:31:16;;;;;;;3.45;1.90;;;;;;;21.85;51.79;94301.75;6098115;23;20008;-91
2023/10/01 06:33:44;;;;;;;5.00;2.25;;;;;;;21.86;51.54;94314.25;6076913;23;20025;-93
2023/10/01 06:36:16;;;;;;;2.85;1.85;;;;;;;21.87;51.59;94309.47;6075403;23;20009;-91
2023/10/01 06:38:45;;;;;;;2.33;1.70;;;;;;;21.87;51.42;94314.97;6077365;23;20453;-96
2023/10/01 06:41:16;;;;;;;2.38;1.60;;;;;;;21.89;51.60;94313.19;6076011;23;20029;-91
2023/10/01 06:43:49;;;;;;;3.67;1.65;;;;;;;21.91;51.50;94309.94;6077374;23;20029;-91
2023/10/01 06:46:30;;;;;;;3.28;2.03;;;;;;;21.93;51.48;94309.44;6077657;23;20025;-93
2023/10/01 06:48:58;;;;;;;4.28;1.70;;;;;;;21.93;51.72;94318.44;6100977;23;20356;-91
2023/10/01 06:51:26;;;;;;;2.38;1.55;;;;;;;21.97;51.51;94318.16;6074965;23;20056;-94
2023/10/01 06:54:05;;;;;;;2.75;1.70;;;;;;;21.96;51.62;94309.16;6076998;23;20013;-91
2023/10/01 06:56:32;;;;;;;2.58;1.63;;;;;;;21.96;51.52;94317.41;6079063;23;20017;-92
2023/10/01 07:02:04;;;;;;;2.80;1.92;;;;;;;21.93;51.46;94315.69;6101480;23;20021;-92
2023/10/01 07:04:23;;;;;;;3.05;1.77;;;;;;;21.94;51.58;94308.16;6064338;23;20026;-93
2023/10/01 07:06:50;;;;;;;3.42;1.92;;;;;;;21.94;51.52;94322.69;6015493;23;20438;-92
2023/10/01 07:09:25;;;;;;;2.90;1.65;;;;;;;21.96;51.47;94316.66;6015703;23;20109;-92
2023/10/01 07:11:52;;;;;;;2.58;1.42;;;;;;;21.96;51.46;94325.66;6020074;23;20026;-93
2023/10/01 07:14:29;;;;;;;2.50;1.40;;;;;;;22.00;51.31;94325.41;6014808;23;20022;-91
2023/10/01 07:16:56;;;;;;;2.22;1.40;;;;;;;22.01;51.28;94326.94;6021685;23;20023;-93
2023/10/01 07:19:21;;;;;;;2.58;1.50;;;;;;;21.99;51.51;94334.91;6015596;23;20054;-94
2023/10/01 07:21:56;;;;;;;2.20;1.33;;;;;;;22.02;51.43;94340.19;6010758;23;20350;-92
2023/10/01 07:24:23;;;;;;;2.33;1.63;;;;;;;22.04;51.34;94336.91;6014016;23;20027;-93
2023/10/01 07:26:50;;;;;;;2.63;1.80;;;;;;;22.04;51.34;94334.16;6015131;23;20041;-92
2023/10/01 07:29:16;;;;;;;2.75;1.80;;;;;;;22.07;51.36;94338.66;5987351;23;20072;-93
2023/10/01 07:31:43;;;;;;;2.80;1.85;;;;;;;22.09;51.33;94336.84;6011816;23;20027;-93
2023/10/01 07:34:16;;;;;;;2.72;1.42;;;;;;;22.07;51.19;94338.66;5997208;23;20018;-92
2023/10/01 07:36:42;;;;;;;2.45;1.48;;;;;;;22.08;51.18;94331.88;6045912;23;20018;-94
2023/10/01 07:39:09;;;;;;;2.47;1.98;;;;;;;22.09;51.17;94336.84;6044596;23;20018;-92
2023/10/01 07:41:38;;;;;;;1.92;1.50;;;;;;;22.11;51.38;94337.09;6044214;23;20030;-93
2023/10/01 07:44:08;;;;;;;2.38;1.70;;;;;;;22.11;51.15;94334.34;6045374;23;20475;-93
2023/10/01 07:46:36;;;;;;;2.60;1.42;;;;;;;22.08;51.17;94340.88;6047265;23;20018;-92
2023/10/01 07:49:02;;;;;;;2.25;1.45;;;;;;;22.12;51.10;94346.09;6047269;23;20468;-93
2023/10/01 07:51:30;;;;;;;2.70;1.63;;;;;;;22.13;51.00;94348.34;6044434;23;20042;-93
2023/10/01 07:54:02;;;;;;;2.90;1.30;;;;;;;22.12;51.03;94344.09;6100640;23;20017;-94
2023/10/01 07:56:28;;;;;;;2.70;1.50;;;;;;;22.15;51.19;94351.34;6078728;23;20021;-93
2023/10/01 08:01:38;;;;;;;2.75;1.63;;;;;;;22.15;51.09;94356.84;6108185;23;20072;-92
2023/10/01 08:06:49;;;;;;;2.22;1.70;;;;;;;22.19;51.04;94356.56;6108421;23;20056;-93
2023/10/01 08:09:15;;;;;;;2.13;1.55;;;;;;;22.16;51.06;94350.06;6076445;23;20096;-92
2023/10/01 08:11:58;;;;;;;1.80;1.50;;;;;;;22.18;51.02;94350.31;6077029;23;20024;-93
2023/10/01 08:14:26;;;;;;;2.40;1.38;;;;;;;22.18;50.95;94349.56;6082015;23;20021;-92
2023/10/01 08:17:00;;;;;;;2.15;1.70;;;;;;;22.19;51.10;94357.31;6077341;23;20076;-93
2023/10/01 08:19:41;;;;;;;3.42;1.80;;;;;;;22.20;51.03;94352.56;6040290;23;20018;-93
2023/10/01 08:22:13;;;;;;;2.92;1.85;;;;;;;22.21;50.86;94349.28;6022985;23;20022;-94
2023/10/01 08:24:39;;;;;;;2.63;1.58;;;;;;;22.24;50.78;94353.03;6020716;23;20101;-93
2023/10/01 08:27:12;;;;;;;2.78;1.48;;;;;;;22.20;50.87;94358.81;6017696;23;20466;-92
2023/10/01 08:32:22;;;;;;;3.53;1.38;;;;;;;22.24;51.02;94350.28;6048068;23;20033;-93
2023/10/01 08:35:03;;;;;;;2.63;1.90;;;;;;;22.23;50.86;94349.53;6041437;23;20063;-92
2023/10/01 08:37:31;;;;;;;;;;;;;;;22.26;51.04;94349.75;6022456;23;20101;-92
2023/10/01 08:39:58;;;;;;;3.10;1.73;;;;;;;22.23;50.89;94360.53;6042200;23;20000;-93
2023/10/01 08:42:29;;;;;;;4.78;1.80;;;;;;;22.21;50.86;94360.31;6016482;23;20046;-94
2023/10/01 08:45:03;;;;;;;3.03;1.63;;;;;;;22.21;50.73;94356.81;6019279;23;20022;-93
2023/10/01 08:47:37;;;;;;;2.35;1.50;;;;;;;22.23;51.04;94368.06;6019612;23;20266;-94
2023/10/01 08:52:52;;;;;;;3.55;2.45;;;;;;;22.25;50.54;94365.53;6109168;23;20056;-92
2023/10/01 08:55:24;;;;;;;3.35;1.88;;;;;;;22.25;50.82;94364.78;6066242;23;20013;-92
2023/10/01 08:57:54;;;;;;;3.75;1.80;;;;;;;22.24;50.88;94369.56;6077309;23;20527;-93
2023/10/01 09:00:23;;;;;;;2.00;1.80;;;;;;;22.25;51.01;94376.56;6077075;23;20017;-92
2023/10/01 09:03:10;;;;;;;2.95;1.60;;;;;;;22.26;50.85;94377.31;6078158;23;20223;-92
2023/10/01 09:05:36;;;;;;;4.47;2.17;;;;;;;22.27;50.87;94371.28;6082327;23;20017;-94
2023/10/01 09:08:26;;;;;;;2.63;1.50;;;;;;;22.28;51.02;94370.03;6077943;23;20060;-91
2023/10/01 09:10:53;;;;;;;3.28;2.00;;;;;;;22.27;50.76;94365.78;6086631;23;20018;-92
2023/10/01 09:13:21;;;;;;;3.17;1.88;;;;;;;22.26;50.67;94358.78;6076250;23;20014;-93
2023/10/01 09:15:53;;;;;;;2.72;1.80;;;;;;;22.28;50.99;94363.78;6078087;23;20352;-93
2023/10/01 09:18:22;;;;;;;3.97;2.33;;;;;;;22.28;50.68;94355.50;6076336;23;20056;-93
2023/10/01 09:21:09;;;;;;;3.40;1.88;;;;;;;22.27;50.69;94363.03;6076535;23;20087;-93
2023/10/01 09:23:55;;;;;;;3.67;2.00;;;;;;;22.25;50.91;94354.53;6044254;23;20019;-92
2023/10/01 09:26:42;;;;;;;2.70;1.60;;;;;;;22.25;50.83;94357.28;6019521;23;20026;-93
2023/10/01 09:29:23;;;;;;;4.97;2.00;;;;;;;22.23;50.86;94359.78;6022658;23;20037;-91
2023/10/01 09:31:58;;;;;;;2.70;1.88;;;;;;;22.27;50.80;94354.75;6018073;23;20010;-93
2023/10/01 09:34:31;;;;;;;2.47;1.50;;;;;;;22.25;51.14;94349.00;6041403;23;20024;-92
2023/10/01 09:37:17;;;;;;;3.25;1.90;;;;;;;22.25;51.02;94356.53;6020114;23;20093;-93
2023/10/01 09:39:43;;;;;;;3.28;1.80;;;;;;;22.28;51.07;94363.78;6041727;23;20022;-92
2023/10/01 09:42:28;;;;;;;3.50;1.70;;;;;;;22.27;50.81;94365.03;6017080;23;20034;-91
2023/10/01 09:45:09;;;;;;;2.63;1.85;;;;;;;22.27;51.06;94354.00;6023652;23;20455;-92
2023/10/01 09:47:35;;;;;;;3.55;2.15;;;;;;;22.27;50.63;94362.28;6020843;23;20197;-94
2023/10/01 09:50:00;;;;;;;4.22;2.38;;;;;;;22.27;50.90;94362.28;6016673;23;20082;-92
2023/10/01 09:52:48;;;;;;;3.70;2.10;;;;;;;22.27;51.21;94363.03;6016361;23;20018;-94
2023/10/01 09:55:26;;;;;;;2.78;1.70;;;;;;;22.24;50.87;94358.53;6101778;23;20530;-92
2023/10/01 09:57:53;;;;;;;4.00;1.73;;;;;;;22.26;50.91;94355.28;6082482;23;20014;-93
2023/10/01 10:00:20;;;;;;;2.70;1.58;;;;;;;22.25;51.00;94354.53;6099753;23;20030;-93
2023/10/01 10:02:53;;;;;;;2.53;1.67;;;;;;;22.25;51.13;94365.53;6101352;23;20041;-93
2023/10/01 10:05:25;;;;;;;2.05;1.50;;;;;;;22.25;51.12;94360.03;6078975;23;20468;-94
2023/10/01 10:07:56;;;;;;;5.20;2.00;;;;;;;22.25;51.16;94368.28;6077069;23;20017;-92
2023/10/01 10:10:24;;;;;;;2.50;2.08;;;;;;;22.24;51.19;94358.53;6074493;23;20017;-92
2023/10/01 10:12:56;;;;;;;3.53;1.65;;;;;;;22.22;51.09;94367.31;6077762;23;20025;-92
2023/10/01 10:15:56;;;;;;;2.72;1.45;;;;;;;22.23;51.07;94359.78;6026845;23;20093;-92
2023/10/01 10:18:23;;;;;;;2.67;1.93;;;;;;;22.25;50.92;94362.03;6040317;23;20321;-93
2023/10/01 10:20:59;;;;;;;4.53;2.05;;;;;;;22.22;51.12;94369.31;6017069;23;20018;-93
2023/10/01 10:23:32;;;;;;;3.15;1.80;;;;;;;22.23;50.96;94362.56;6016639;23;20169;-93
2023/10/01 10:26:13;;;;;;;2.55;1.77;;;;;;;22.22;51.29;94361.06;6019413;23;20014;-93
2023/10/01 10:28:52;;;;;;;4.13;2.17;;;;;;;22.22;51.20;94359.03;6005091;23;20397;-94
2023/10/01 10:31:32;;;;;;;3.03;1.75;;;;;;;22.21;51.06;94360.31;6038978;23;20160;-93
2023/10/01 10:34:25;;;;;;;2.88;1.83;;;;;;;22.22;51.37;94358.28;6018640;23;20018;-92
2023/10/01 10:36:53;;;;;;;2.80;1.67;;;;;;;22.21;51.42;94354.78;6010754;23;20060;-94
2023/10/01 10:39:50;;;;;;;2.97;1.88;;;;;;;22.22;51.59;94359.03;6017442;23;20077;-93
2023/10/01 10:42:29;;;;;;;3.03;1.90;;;;;;;22.21;51.33;94349.28;6062339;23;20121;-92
2023/10/01 10:45:22;;;;;;;3.17;1.70;;;;;;;22.23;51.26;94357.03;6008105;23;20089;-94
2023/10/01 10:48:03;;;;;;;3.28;2.08;;;;;;;22.20;51.40;94350.53;6118058;23;20108;-93
2023/10/01 10:50:53;;;;;;;3.10;1.88;;;;;;;22.20;51.30;94352.56;6105500;23;20029;-93
2023/10/01 10:53:25;;;;;;;3.75;1.85;;;;;;;22.20;51.28;94345.03;6071670;23;20431;-93
2023/10/01 10:56:05;;;;;;;2.17;1.60;;;;;;;22.20;51.42;94356.06;6071517;23;20018;-93
2023/10/01 10:58:40;;;;;;;2.63;1.50;;;;;;;22.20;51.21;94349.78;6095260;23;20402;-93
2023/10/01 11:01:15;;;;;;;2.88;1.63;;;;;;;22.19;51.70;94351.81;6060732;23;20018;-95
2023/10/01 11:03:51;;;;;;;2.25;1.48;;;;;;;22.19;51.48;94346.28;6041969;23;20026;-92
2023/10/01 11:06:17;;;;;;;2.30;1.42;;;;;;;22.22;51.30;94337.00;6003376;23;20440;-93
2023/10/01 11:08:50;;;;;;;2.13;1.65;;;;;;;22.22;51.49;94339.03;6064066;23;20030;-91
2023/10/01 11:11:27;;;;;;;3.25;1.80;;;;;;;22.20;51.59;94334.03;6016482;23;20019;-94
2023/10/01 11:14:00;;;;;;;3.00;1.70;;;;;;;22.23;51.17;94335.00;6018077;23;20027;-93
2023/10/01 11:16:36;;;;;;;2.42;1.65;;;;;;;22.21;51.31;94329.25;6018978;23;20385;-94
2023/10/01 11:19:14;;;;;;;2.60;1.70;;;;;;;22.21;51.44;94338.28;6017685;23;20030;-93
2023/10/01 11:21:55;;;;;;;3.17;2.00;;;;;;;22.21;51.57;94332.00;6031275;23;20018;-94
2023/10/01 11:24:30;;;;;;;3.05;1.65;;;;;;;22.20;51.36;94331.25;6063229;23;20019;-91
2023/10/01 11:27:25;;;;;;;2.20;1.63;;;;;;;22.19;51.60;94329.03;6064382;23;20021;-92
2023/10/01 11:30:12;;;;;;;3.03;2.00;;;;;;;22.19;51.56;94329.03;6042159;23;20105;-93
2023/10/01 11:33:12;;;;;;;2.70;1.63;;;;;;;22.20;51.53;94327.75;6042336;23;20057;-93
2023/10/01 11:35:59;;;;;;;2.90;2.08;;;;;;;22.21;51.21;94323.75;6056187;23;20010;-94
2023/10/01 11:38:27;;;;;;;5.85;2.78;;;;;;;22.18;49.57;94324.78;6117368;23;20021;-92
2023/10/01 11:41:10;;;;;;;6.22;2.95;;;;;;;22.15;49.91;94320.28;6094347;23;20026;-94
2023/10/01 11:44:02;;;;;;;6.55;3.28;;;;;;;22.23;49.42;94315.72;6073211;23;20044;-91
2023/10/01 11:49:16;;;;;;;23.50;9.73;;;;;;;22.15;49.93;94312.78;6123453;23;20120;-92
2023/10/01 11:51:50;;;;;;;29.85;19.73;;;;;;;22.18;49.87;94305.50;6124674;23;20026;-92
2023/10/01 11:54:52;;;;;;;26.85;12.45;;;;;;;22.19;49.59;94307.00;6077785;23;20046;-93
2023/10/01 11:57:22;;;;;;;13.93;7.72;;;;;;;22.27;49.44;94310.69;6086730;23;20036;-92
2023/10/01 11:59:58;;;;;;;82.85;73.38;;;;;;;22.21;50.22;94293.47;6077030;23;20021;-92
2023/10/01 12:02:43;;;;;;;62.40;51.17;;;;;;;22.22;49.58;94292.94;6077397;23;20093;-93
2023/10/01 12:05:13;;;;;;;21.65;15.75;;;;;;;22.24;49.71;94300.69;6078560;23;20022;-90
2023/10/01 12:07:43;;;;;;;12.77;5.70;;;;;;;22.23;49.96;94294.44;6077488;23;20048;-92
2023/10/01 12:10:31;;;;;;;8.98;4.40;;;;;;;22.20;50.11;94300.22;6075249;23;20045;-93
2023/10/01 12:12:54;;;;;;;7.60;4.10;;;;;;;22.18;50.12;94295.22;6103986;23;20393;-94
2023/10/01 12:15:33;;;;;;;8.85;4.13;;;;;;;22.19;50.17;94293.22;6097936;23;20018;-93
2023/10/01 12:18:07;;;;;;;5.47;4.35;;;;;;;22.18;50.23;94292.47;6099793;23;20014;-92
2023/10/01 12:20:39;;;;;;;8.80;4.25;;;;;;;22.18;50.01;94294.47;6074577;23;20022;-92
2023/10/01 12:23:11;;;;;;;7.57;3.95;;;;;;;22.18;50.39;94297.97;6072331;23;20453;-93
2023/10/01 12:25:47;;;;;;;6.18;3.65;;;;;;;22.19;50.45;94290.47;6072469;23;20069;-93
2023/10/01 12:28:27;;;;;;;6.22;3.25;;;;;;;22.20;50.54;94289.22;6072564;23;20046;-93
2023/10/01 12:30:57;;;;;;;5.45;3.13;;;;;;;22.21;50.69;94287.94;6075061;23;20122;-92